Time;durP1;ratioP1;P1;durP2;ratioP2;P2;SDS_P1;SDS_P2;PMS_P1;PMS_P2;Temp;Humidity;BMP_temperature;BMP_pressure;BME280_temperature;BME280_humidity;BME280_pressure;Samples;Min_cycle;Max_cycle;Signal;HPM_P1;HPM_P2
2023/01/27 00:00:52;;;;;;;21.97;12.13;;;0.90;99.90;;;;;;5007880;28;20199;-58
2023/01/27 00:03:18;;;;;;;23.37;11.87;;;1.00;99.90;;;;;;5010798;28;20251;-59
2023/01/27 00:05:44;;;;;;;22.70;11.93;;;1.00;99.90;;;;;;5011543;28;20624;-58
2023/01/27 00:08:09;;;;;;;22.00;11.03;;;1.00;99.90;;;;;;5008219;28;20212;-58
2023/01/27 00:10:35;;;;;;;21.27;12.43;;;0.90;99.90;;;;;;5005754;28;20643;-58
2023/01/27 00:15:45;;;;;;;19.03;11.30;;;1.10;99.90;;;;;;5008835;28;20223;-58
2023/01/27 00:18:11;;;;;;;22.47;12.10;;;1.00;99.90;;;;;;5005653;28;20213;-58
2023/01/27 00:26:16;;;;;;;22.70;11.30;;;0.90;99.90;;;;;;4998575;28;20212;-60
2023/01/27 00:28:43;;;;;;;20.27;10.57;;;0.80;99.90;;;;;;4998518;28;20677;-59
2023/01/27 00:34:00;;;;;;;20.47;10.00;;;1.00;99.90;;;;;;5007574;28;20211;-72
2023/01/27 00:36:27;;;;;;;16.07;10.70;;;0.90;99.90;;;;;;5004586;28;20654;-69
2023/01/27 00:38:52;;;;;;;22.67;10.97;;;1.00;99.90;;;;;;5006496;28;20247;-70
2023/01/27 00:41:18;;;;;;;24.53;13.57;;;1.10;99.90;;;;;;5007752;28;20646;-68
2023/01/27 00:43:48;;;;;;;22.60;12.17;;;1.10;99.90;;;;;;5008219;28;20731;-69
2023/01/27 00:46:15;;;;;;;19.53;10.97;;;1.10;99.90;;;;;;5003028;28;20642;-68
2023/01/27 00:48:41;;;;;;;20.87;10.73;;;1.00;99.90;;;;;;5005608;28;20233;-69
2023/01/27 00:51:06;;;;;;;32.30;16.80;;;1.00;99.90;;;;;;5005982;28;20236;-71
2023/01/27 00:53:32;;;;;;;21.53;11.07;;;1.00;99.90;;;;;;5008304;28;20304;-73
2023/01/27 00:55:57;;;;;;;23.37;11.57;;;1.00;99.90;;;;;;5005654;28;20268;-70
2023/01/27 00:58:27;;;;;;;18.13;10.47;;;1.00;99.90;;;;;;5006569;28;20311;-71
2023/01/27 01:01:00;;;;;;;19.50;11.07;;;0.90;99.90;;;;;;5007935;28;20274;-70
2023/01/27 01:03:30;;;;;;;21.83;10.97;;;0.80;99.90;;;;;;5003602;28;20291;-69
2023/01/27 01:05:56;;;;;;;16.80;9.93;;;0.90;99.90;;;;;;5004073;28;20293;-69
2023/01/27 01:08:21;;;;;;;32.77;20.13;;;0.90;99.90;;;;;;5006140;28;20281;-67
2023/01/27 01:10:47;;;;;;;22.80;12.37;;;0.90;99.90;;;;;;5008667;28;20206;-71
2023/01/27 01:13:12;;;;;;;71.10;39.97;;;0.80;99.90;;;;;;5007231;28;20742;-69
2023/01/27 01:15:38;;;;;;;42.43;20.87;;;0.80;99.90;;;;;;5007565;28;20330;-72
2023/01/27 01:18:05;;;;;;;27.10;15.33;;;0.90;99.90;;;;;;5007017;28;20212;-67
2023/01/27 01:20:36;;;;;;;27.57;16.53;;;0.90;99.90;;;;;;5008033;28;20526;-68
2023/01/27 01:23:02;;;;;;;20.90;10.93;;;0.90;99.90;;;;;;5003839;28;20585;-71
2023/01/27 01:25:27;;;;;;;17.37;10.43;;;0.90;99.90;;;;;;5012226;28;20283;-70
2023/01/27 01:27:53;;;;;;;19.23;11.43;;;0.80;99.90;;;;;;5009993;28;20197;-69
2023/01/27 01:30:20;;;;;;;17.40;10.57;;;0.80;99.90;;;;;;4998352;28;20660;-68
2023/01/27 01:32:46;;;;;;;20.17;12.07;;;0.90;99.90;;;;;;5000294;28;20210;-70
2023/01/27 01:35:11;;;;;;;53.80;27.37;;;0.90;99.90;;;;;;4999641;28;20226;-69
2023/01/27 01:37:37;;;;;;;25.07;13.67;;;1.10;99.90;;;;;;5010362;28;20932;-70
2023/01/27 01:40:02;;;;;;;20.40;11.40;;;1.10;99.90;;;;;;5005019;28;20193;-70
2023/01/27 01:42:51;;;;;;;19.53;11.20;;;1.00;99.90;;;;;;5010393;28;20220;-72
2023/01/27 01:45:32;;;;;;;21.33;11.73;;;0.90;99.90;;;;;;5010250;28;20214;-72
2023/01/27 01:48:11;;;;;;;19.07;10.70;;;0.90;99.90;;;;;;5010188;28;20250;-67
2023/01/27 01:50:39;;;;;;;23.43;12.13;;;0.90;99.90;;;;;;5007020;28;20205;-68
2023/01/27 01:53:06;;;;;;;16.20;9.77;;;0.80;99.90;;;;;;5002847;28;20673;-68
2023/01/27 01:55:35;;;;;;;25.67;15.07;;;0.70;99.90;;;;;;5003414;28;20196;-68
2023/01/27 01:58:01;;;;;;;19.90;12.47;;;0.70;99.90;;;;;;5004911;28;20208;-67
2023/01/27 02:00:27;;;;;;;20.00;11.30;;;0.70;99.90;;;;;;5004021;28;21070;-67
2023/01/27 02:02:53;;;;;;;19.70;12.63;;;0.70;99.90;;;;;;5001956;28;20208;-69
2023/01/27 02:05:26;;;;;;;24.43;14.50;;;0.80;99.90;;;;;;5000696;28;20221;-68
2023/01/27 02:07:59;;;;;;;16.77;11.20;;;0.90;99.90;;;;;;5006100;28;20208;-67
2023/01/27 02:10:25;;;;;;;26.27;15.60;;;0.80;99.90;;;;;;5006278;28;20189;-67
2023/01/27 02:12:50;;;;;;;60.37;33.57;;;0.80;99.90;;;;;;5001250;28;20604;-67
2023/01/27 02:15:17;;;;;;;22.87;13.83;;;0.80;99.90;;;;;;5002043;28;20201;-67
2023/01/27 02:17:42;;;;;;;19.20;10.67;;;0.80;99.90;;;;;;5001605;28;20693;-68
2023/01/27 02:20:22;;;;;;;28.73;14.50;;;0.80;99.90;;;;;;5006660;28;20203;-68
2023/01/27 02:23:06;;;;;;;25.00;10.93;;;0.80;99.90;;;;;;5002161;28;20234;-68
2023/01/27 02:25:34;;;;;;;23.03;11.93;;;0.70;99.90;;;;;;5005333;28;20207;-68
2023/01/27 02:28:04;;;;;;;26.33;13.10;;;0.70;99.90;;;;;;5005035;28;20467;-67
2023/01/27 02:30:30;;;;;;;25.00;13.23;;;0.80;99.90;;;;;;5002698;28;20211;-67
2023/01/27 02:32:55;;;;;;;22.40;12.87;;;0.80;99.90;;;;;;5007719;28;20638;-68
2023/01/27 02:35:54;;;;;;;24.00;12.93;;;0.90;99.90;;;;;;5000230;28;20205;-67
2023/01/27 02:38:20;;;;;;;48.90;27.73;;;1.00;99.90;;;;;;4964026;28;20308;-69
2023/01/27 02:40:52;;;;;;;21.97;11.63;;;1.10;99.90;;;;;;5011305;28;20225;-68
2023/01/27 02:43:18;;;;;;;19.00;9.57;;;1.10;99.90;;;;;;5014694;28;20279;-68
2023/01/27 02:45:45;;;;;;;24.00;11.97;;;1.00;99.90;;;;;;5011374;28;20610;-69
2023/01/27 02:48:11;;;;;;;24.47;11.70;;;1.00;99.90;;;;;;5001667;28;20208;-66
2023/01/27 02:50:37;;;;;;;25.00;14.30;;;1.00;99.90;;;;;;5004388;28;20201;-68
2023/01/27 02:53:02;;;;;;;18.07;10.73;;;0.90;99.90;;;;;;5004964;28;20220;-67
2023/01/27 02:55:28;;;;;;;21.47;11.13;;;0.90;99.90;;;;;;5005980;28;20208;-68
2023/01/27 02:57:53;;;;;;;21.70;11.77;;;0.90;99.90;;;;;;5005682;28;20218;-69
2023/01/27 03:00:19;;;;;;;29.17;14.10;;;0.90;99.90;;;;;;5004946;28;20233;-69
2023/01/27 03:02:44;;;;;;;24.70;12.77;;;0.80;99.90;;;;;;5012169;28;20221;-68
2023/01/27 03:05:09;;;;;;;29.10;14.90;;;0.80;99.90;;;;;;5011321;28;20197;-67
2023/01/27 03:07:35;;;;;;;18.17;9.80;;;0.90;99.90;;;;;;4995886;28;20557;-68
2023/01/27 03:10:00;;;;;;;24.93;11.13;;;0.90;99.90;;;;;;4998381;28;20204;-68
2023/01/27 03:12:26;;;;;;;25.87;12.33;;;0.90;99.90;;;;;;5004561;28;20204;-68
2023/01/27 03:20:21;;;;;;;31.77;16.50;;;0.90;99.90;;;;;;5011541;28;20223;-73
2023/01/27 03:22:48;;;;;;;19.03;10.33;;;1.00;99.90;;;;;;5009628;28;20728;-71
2023/01/27 03:25:14;;;;;;;38.60;20.93;;;1.00;99.90;;;;;;5009403;28;20567;-71
2023/01/27 03:27:40;;;;;;;45.57;24.23;;;1.10;99.90;;;;;;5011589;28;20294;-71
2023/01/27 03:30:07;;;;;;;30.30;12.77;;;1.30;99.90;;;;;;5008952;28;20316;-71
2023/01/27 03:32:32;;;;;;;22.37;10.87;;;1.30;99.90;;;;;;5013974;28;20751;-74
2023/01/27 03:34:59;;;;;;;38.63;19.67;;;1.30;99.90;;;;;;5000691;28;20209;-69
2023/01/27 03:48:33;;;;;;;23.63;11.80;;;1.60;99.90;;;;;;5007710;28;20217;-66
2023/01/27 03:50:59;;;;;;;22.13;12.10;;;1.50;99.90;;;;;;4999682;28;20573;-68
2023/01/27 03:53:24;;;;;;;19.10;11.07;;;1.40;99.90;;;;;;5002244;28;20202;-69
2023/01/27 03:55:50;;;;;;;21.33;12.10;;;1.40;99.90;;;;;;5010233;28;20711;-68
2023/01/27 03:58:18;;;;;;;36.87;22.43;;;1.20;99.90;;;;;;5007720;28;20202;-68
2023/01/27 04:00:52;;;;;;;23.13;12.90;;;1.20;99.90;;;;;;5005834;28;20221;-67
2023/01/27 04:08:56;;;;;;;35.27;18.33;;;1.30;99.90;;;;;;5005397;28;20787;-67
2023/01/27 04:14:06;;;;;;;19.53;11.47;;;1.30;99.90;;;;;;4998085;28;21050;-67
2023/01/27 04:16:35;;;;;;;20.40;10.93;;;1.30;99.90;;;;;;5013154;28;20836;-67
2023/01/27 04:19:02;;;;;;;28.57;16.07;;;1.20;99.90;;;;;;5009708;28;20217;-67
2023/01/27 04:21:28;;;;;;;49.77;27.90;;;1.10;99.90;;;;;;5008748;28;20257;-67
2023/01/27 04:23:54;;;;;;;17.77;9.10;;;1.20;99.90;;;;;;5010055;28;20574;-69
2023/01/27 04:26:20;;;;;;;18.03;9.37;;;1.20;99.90;;;;;;5012810;28;20205;-67
2023/01/27 04:28:46;;;;;;;15.43;8.87;;;1.10;99.90;;;;;;5006749;28;20215;-68
2023/01/27 04:31:13;;;;;;;15.03;8.50;;;1.20;99.90;;;;;;5008050;28;20213;-67
2023/01/27 04:33:38;;;;;;;15.10;8.77;;;1.10;99.90;;;;;;4992456;28;20211;-68
2023/01/27 04:36:04;;;;;;;12.97;8.03;;;1.20;99.90;;;;;;5007085;28;20641;-68
2023/01/27 04:38:29;;;;;;;11.80;7.60;;;1.30;99.90;;;;;;5010444;28;20233;-68
2023/01/27 04:40:55;;;;;;;13.47;7.73;;;1.30;99.90;;;;;;5005521;28;20222;-68
2023/01/27 04:43:20;;;;;;;15.27;8.73;;;1.20;99.90;;;;;;5005056;28;20218;-71
2023/01/27 04:45:46;;;;;;;11.27;7.73;;;1.30;99.90;;;;;;5005941;28;20258;-71
2023/01/27 04:48:11;;;;;;;15.23;7.87;;;1.30;99.90;;;;;;5006906;28;20687;-70
2023/01/27 04:50:37;;;;;;;13.40;7.27;;;1.30;99.90;;;;;;5005784;28;20967;-70
2023/01/27 04:53:02;;;;;;;12.90;8.03;;;1.30;99.90;;;;;;5006466;28;20200;-66
2023/01/27 04:55:28;;;;;;;16.30;7.97;;;1.30;99.90;;;;;;5012102;28;20907;-66
2023/01/27 04:57:53;;;;;;;16.57;8.67;;;1.40;99.90;;;;;;5007156;28;20245;-67
2023/01/27 05:00:19;;;;;;;15.63;8.63;;;1.40;99.90;;;;;;5005108;28;20286;-67
2023/01/27 05:02:45;;;;;;;12.63;7.60;;;1.40;99.90;;;;;;5003214;28;20225;-67
2023/01/27 05:05:10;;;;;;;14.60;8.03;;;1.40;99.90;;;;;;5009398;28;20661;-66
2023/01/27 05:07:36;;;;;;;14.03;8.23;;;1.40;99.90;;;;;;4997048;28;20215;-66
2023/01/27 05:10:02;;;;;;;15.13;8.83;;;1.40;99.90;;;;;;5005546;28;20649;-67
2023/01/27 05:12:28;;;;;;;15.10;8.03;;;1.30;99.90;;;;;;5003735;28;20196;-67
2023/01/27 05:14:53;;;;;;;14.67;7.80;;;1.30;99.90;;;;;;5003976;28;20225;-67
2023/01/27 05:17:19;;;;;;;11.60;7.63;;;1.30;99.90;;;;;;5006850;28;20200;-66
2023/01/27 05:19:44;;;;;;;11.87;7.50;;;1.40;99.90;;;;;;5004984;28;20438;-66
2023/01/27 05:22:10;;;;;;;14.70;8.47;;;1.40;99.90;;;;;;5007750;28;20283;-68
2023/01/27 05:24:39;;;;;;;11.97;7.17;;;1.40;99.90;;;;;;5008905;28;20237;-70
2023/01/27 05:27:05;;;;;;;13.27;7.87;;;1.40;99.90;;;;;;5008587;28;20606;-69
2023/01/27 05:29:31;;;;;;;12.33;8.07;;;1.40;99.90;;;;;;5006479;28;20213;-71
2023/01/27 05:31:56;;;;;;;13.43;8.10;;;1.30;99.90;;;;;;5006663;28;20202;-73
2023/01/27 05:34:22;;;;;;;17.83;8.87;;;1.30;99.90;;;;;;5002679;28;20213;-72
2023/01/27 05:36:48;;;;;;;12.53;7.63;;;1.30;99.90;;;;;;4997653;28;20751;-69
2023/01/27 05:39:13;;;;;;;15.83;9.20;;;1.30;99.90;;;;;;5005325;28;20203;-71
2023/01/27 05:41:39;;;;;;;13.90;9.17;;;1.30;99.90;;;;;;5006615;28;20695;-69
2023/01/27 05:44:05;;;;;;;17.60;9.03;;;1.20;99.90;;;;;;5006797;28;20214;-75
2023/01/27 05:46:32;;;;;;;15.30;8.50;;;1.30;99.90;;;;;;5005885;28;20198;-70
2023/01/27 05:49:05;;;;;;;16.03;9.67;;;1.30;99.90;;;;;;5007758;28;20201;-70
2023/01/27 05:51:34;;;;;;;15.13;9.27;;;1.30;99.90;;;;;;5007429;28;20661;-70
2023/01/27 05:54:00;;;;;;;18.20;8.67;;;1.30;99.90;;;;;;4984744;28;20203;-71
2023/01/27 05:56:26;;;;;;;13.87;8.53;;;1.40;99.90;;;;;;5004026;28;20209;-71
2023/01/27 05:58:56;;;;;;;20.07;9.03;;;1.40;99.90;;;;;;5006924;28;20199;-70
2023/01/27 06:01:24;;;;;;;16.77;8.53;;;1.40;99.90;;;;;;5006689;28;20424;-72
2023/01/27 06:03:50;;;;;;;18.13;9.20;;;1.40;99.90;;;;;;5006368;28;20312;-69
2023/01/27 06:06:21;;;;;;;16.20;8.83;;;1.30;99.90;;;;;;4988311;28;20804;-69
2023/01/27 06:08:47;;;;;;;11.83;8.50;;;1.30;99.90;;;;;;5006555;28;20210;-70
2023/01/27 06:11:14;;;;;;;13.77;7.93;;;1.30;99.90;;;;;;5002557;28;20258;-71
2023/01/27 06:13:40;;;;;;;17.67;7.87;;;1.30;99.90;;;;;;4995129;28;20226;-71
2023/01/27 06:16:08;;;;;;;13.60;8.27;;;1.30;99.90;;;;;;4996631;28;20199;-71
2023/01/27 06:18:35;;;;;;;24.30;11.50;;;1.30;99.90;;;;;;5004450;28;20264;-72
2023/01/27 06:21:01;;;;;;;18.03;10.10;;;1.30;99.90;;;;;;4998894;28;20647;-71
2023/01/27 06:23:27;;;;;;;16.03;9.67;;;1.30;99.90;;;;;;4997685;28;20297;-70
2023/01/27 06:25:54;;;;;;;14.50;7.90;;;1.20;99.90;;;;;;4995583;28;20231;-70
2023/01/27 06:28:20;;;;;;;15.03;9.77;;;1.30;99.90;;;;;;4997168;28;20213;-70
2023/01/27 06:30:46;;;;;;;16.53;8.67;;;1.40;99.90;;;;;;5007025;28;20199;-70
2023/01/27 06:33:11;;;;;;;14.00;8.63;;;1.40;99.90;;;;;;4997024;28;20206;-70
2023/01/27 06:35:39;;;;;;;14.63;7.47;;;1.40;99.90;;;;;;5000322;28;20242;-70
2023/01/27 06:38:09;;;;;;;13.80;8.20;;;1.40;99.90;;;;;;5001209;28;20202;-69
2023/01/27 06:40:35;;;;;;;16.83;9.23;;;1.40;99.90;;;;;;5003408;28;20237;-66
2023/01/27 06:43:01;;;;;;;15.37;8.77;;;1.40;99.90;;;;;;4999954;28;20295;-71
2023/01/27 06:45:27;;;;;;;15.30;9.93;;;1.50;99.90;;;;;;4997178;28;20205;-71
2023/01/27 06:47:58;;;;;;;17.13;8.53;;;1.40;99.90;;;;;;4996613;28;20289;-71
2023/01/27 06:50:25;;;;;;;14.70;8.30;;;1.50;99.90;;;;;;5000765;28;20195;-70
2023/01/27 06:52:51;;;;;;;16.63;9.30;;;1.50;99.90;;;;;;5004496;28;20566;-70
2023/01/27 06:55:18;;;;;;;19.83;9.67;;;1.50;99.90;;;;;;5011395;28;20211;-71
2023/01/27 06:57:46;;;;;;;13.77;9.23;;;1.70;99.90;;;;;;5012785;28;20295;-70
2023/01/27 07:00:13;;;;;;;17.33;9.97;;;1.80;99.90;;;;;;5013194;28;20216;-71
2023/01/27 07:02:38;;;;;;;22.63;11.13;;;1.80;99.90;;;;;;5003586;28;20247;-70
2023/01/27 07:05:04;;;;;;;15.23;9.37;;;1.90;99.90;;;;;;5007134;28;20232;-70
2023/01/27 07:07:29;;;;;;;23.90;11.03;;;1.90;99.90;;;;;;5008748;28;20573;-70
2023/01/27 07:09:55;;;;;;;17.57;9.53;;;1.90;99.90;;;;;;5009112;28;20688;-71
2023/01/27 07:12:20;;;;;;;17.40;9.33;;;1.90;99.90;;;;;;5007527;28;20250;-70
2023/01/27 07:14:46;;;;;;;19.27;8.80;;;1.90;99.90;;;;;;5009180;28;20468;-71
2023/01/27 07:17:11;;;;;;;20.00;9.20;;;1.90;99.90;;;;;;5008690;28;20557;-71
2023/01/27 07:19:37;;;;;;;18.27;10.10;;;1.80;99.90;;;;;;5009176;28;20209;-70
2023/01/27 07:22:02;;;;;;;18.03;9.50;;;1.80;99.90;;;;;;5005388;28;20242;-70
2023/01/27 07:24:28;;;;;;;19.30;9.13;;;1.90;99.90;;;;;;5008863;28;20221;-71
2023/01/27 07:26:53;;;;;;;18.10;9.13;;;1.90;99.90;;;;;;5009648;28;20292;-69
2023/01/27 07:29:19;;;;;;;15.50;9.17;;;1.80;99.90;;;;;;5008363;28;20671;-69
2023/01/27 07:31:44;;;;;;;19.37;8.37;;;1.80;99.90;;;;;;5014238;28;20300;-70
2023/01/27 07:34:10;;;;;;;16.37;8.90;;;1.80;99.90;;;;;;5011463;28;20686;-69
2023/01/27 07:36:35;;;;;;;16.13;8.70;;;1.90;99.90;;;;;;5004391;28;20213;-68
2023/01/27 07:39:01;;;;;;;16.27;9.43;;;1.90;99.90;;;;;;5008270;28;20217;-69
2023/01/27 07:41:26;;;;;;;13.60;8.10;;;1.90;99.90;;;;;;5006024;28;20217;-71
2023/01/27 07:43:52;;;;;;;14.53;8.53;;;1.90;99.90;;;;;;5008177;28;20270;-70
2023/01/27 07:46:17;;;;;;;16.27;9.17;;;2.00;99.90;;;;;;5002339;28;20202;-68
2023/01/27 07:48:43;;;;;;;15.53;7.97;;;2.00;99.90;;;;;;5008169;28;20203;-77
2023/01/27 07:51:17;;;;;;;20.40;9.80;;;2.00;99.90;;;;;;5003339;28;20975;-70
2023/01/27 07:53:43;;;;;;;12.97;9.00;;;2.00;99.90;;;;;;5005530;28;20360;-70
2023/01/27 07:56:11;;;;;;;17.83;9.37;;;2.00;99.90;;;;;;5007708;28;20317;-70
2023/01/27 07:58:38;;;;;;;15.03;8.67;;;2.10;99.90;;;;;;5010115;28;20210;-70
2023/01/27 08:01:05;;;;;;;19.03;9.47;;;2.20;99.90;;;;;;5008326;28;20679;-72
2023/01/27 08:03:30;;;;;;;15.33;9.73;;;2.20;99.90;;;;;;5009392;28;20213;-71
2023/01/27 08:05:56;;;;;;;15.40;9.53;;;2.20;99.90;;;;;;5001893;28;20218;-72
2023/01/27 08:08:21;;;;;;;12.90;9.43;;;2.30;99.90;;;;;;5009559;28;21130;-72
2023/01/27 08:10:50;;;;;;;14.10;9.33;;;2.40;99.90;;;;;;5004902;28;20206;-73
2023/01/27 08:13:16;;;;;;;12.50;9.97;;;2.40;99.90;;;;;;5005833;28;20240;-68
2023/01/27 08:15:41;;;;;;;16.67;9.53;;;2.50;99.90;;;;;;5006530;28;20392;-68
2023/01/27 08:18:08;;;;;;;15.10;8.03;;;2.50;99.90;;;;;;5007638;28;20287;-68
2023/01/27 08:20:34;;;;;;;15.97;9.67;;;2.50;99.90;;;;;;5010891;28;20219;-71
2023/01/27 08:22:59;;;;;;;17.07;10.10;;;2.50;99.90;;;;;;5007608;28;20647;-69
2023/01/27 08:25:25;;;;;;;14.57;8.73;;;2.50;99.90;;;;;;5007415;28;20233;-68
2023/01/27 08:27:52;;;;;;;16.77;9.17;;;2.60;99.90;;;;;;5005368;28;20948;-71
2023/01/27 08:30:18;;;;;;;14.80;8.80;;;2.60;99.90;;;;;;5006139;28;20270;-70
2023/01/27 08:32:44;;;;;;;11.20;8.07;;;2.60;99.90;;;;;;4998720;28;20211;-69
2023/01/27 08:35:09;;;;;;;13.90;9.37;;;2.60;99.90;;;;;;5000594;28;20750;-70
2023/01/27 08:37:35;;;;;;;15.27;8.13;;;2.70;99.90;;;;;;5005941;28;20204;-69
2023/01/27 08:40:00;;;;;;;13.70;8.13;;;2.80;99.90;;;;;;5008258;28;20200;-75
2023/01/27 08:42:26;;;;;;;17.23;8.93;;;2.90;99.90;;;;;;5003288;28;20201;-67
2023/01/27 08:44:51;;;;;;;14.30;9.60;;;2.90;99.90;;;;;;5006213;28;20791;-75
2023/01/27 08:47:17;;;;;;;14.63;8.17;;;2.90;99.90;;;;;;5008516;28;20709;-66
2023/01/27 08:49:42;;;;;;;14.50;9.27;;;3.00;99.90;;;;;;5003889;28;20203;-69
2023/01/27 08:52:08;;;;;;;15.03;9.00;;;3.00;99.90;;;;;;5007035;28;20549;-68
2023/01/27 08:54:33;;;;;;;12.37;9.10;;;3.00;99.90;;;;;;5008927;28;20213;-68
2023/01/27 08:56:59;;;;;;;12.57;8.73;;;3.00;99.90;;;;;;5005427;28;20482;-68
2023/01/27 08:59:24;;;;;;;13.37;9.40;;;3.10;99.90;;;;;;5009271;28;20695;-68
2023/01/27 09:01:49;;;;;;;10.10;7.90;;;3.30;99.90;;;;;;5014067;28;20214;-69
2023/01/27 09:04:15;;;;;;;12.10;8.73;;;3.20;99.90;;;;;;5006874;28;20218;-70
2023/01/27 09:06:40;;;;;;;12.97;8.30;;;3.30;99.90;;;;;;5005002;28;20211;-73
2023/01/27 09:09:09;;;;;;;15.73;8.47;;;3.30;99.90;;;;;;5007853;28;20284;-67
2023/01/27 09:11:36;;;;;;;13.27;8.50;;;3.40;99.90;;;;;;5010374;28;20219;-70
2023/01/27 09:14:02;;;;;;;11.07;7.20;;;3.30;99.90;;;;;;5011192;28;20271;-66
2023/01/27 09:16:27;;;;;;;13.40;8.60;;;3.40;99.90;;;;;;5005195;28;20211;-64
2023/01/27 09:18:53;;;;;;;15.93;9.17;;;3.50;99.90;;;;;;5009834;28;20278;-65
2023/01/27 09:21:19;;;;;;;11.20;8.63;;;3.50;99.90;;;;;;5006150;28;20227;-62
2023/01/27 09:23:47;;;;;;;10.70;8.13;;;3.60;99.90;;;;;;5009762;28;20212;-63
2023/01/27 09:26:13;;;;;;;11.30;7.87;;;3.50;99.90;;;;;;5005045;28;20688;-65
2023/01/27 09:28:38;;;;;;;8.87;7.60;;;3.50;99.90;;;;;;5002522;28;20261;-64
2023/01/27 09:31:04;;;;;;;10.27;7.10;;;3.50;99.90;;;;;;5008941;28;20212;-64
2023/01/27 09:33:29;;;;;;;11.00;7.53;;;3.50;99.90;;;;;;5007357;28;20636;-64
2023/01/27 09:36:01;;;;;;;12.43;7.17;;;3.40;99.90;;;;;;5003480;28;20291;-63
2023/01/27 09:38:32;;;;;;;10.57;7.30;;;3.50;99.90;;;;;;5003571;28;20211;-72
2023/01/27 09:41:37;;;;;;;10.23;7.13;;;3.50;99.90;;;;;;5003567;28;20200;-66
2023/01/27 09:44:33;;;;;;;7.67;6.03;;;3.50;99.90;;;;;;5007653;28;20219;-67
2023/01/27 09:47:06;;;;;;;10.53;6.03;;;3.50;99.90;;;;;;5011378;28;20215;-66
2023/01/27 09:49:43;;;;;;;8.60;6.10;;;3.50;99.90;;;;;;5004322;28;20383;-66
2023/01/27 09:52:31;;;;;;;9.47;6.77;;;3.50;99.90;;;;;;4996909;28;20204;-67
2023/01/27 09:55:13;;;;;;;8.47;6.50;;;3.50;99.90;;;;;;5008688;28;20835;-66
2023/01/27 09:57:54;;;;;;;9.57;6.43;;;3.50;99.90;;;;;;5012328;28;20203;-67
2023/01/27 10:00:31;;;;;;;11.27;8.27;;;3.50;99.90;;;;;;5013497;28;20202;-65
2023/01/27 10:03:14;;;;;;;8.10;5.60;;;3.50;99.90;;;;;;5013007;28;20219;-65
2023/01/27 10:06:03;;;;;;;13.80;7.63;;;3.50;99.90;;;;;;4996852;28;20207;-68
2023/01/27 10:08:32;;;;;;;7.77;6.13;;;3.60;99.90;;;;;;5011816;28;20307;-65
2023/01/27 10:12:02;;;;;;;5.80;5.30;;;3.50;99.90;;;;;;5011549;28;20563;-67
2023/01/27 10:14:47;;;;;;;8.90;6.27;;;3.60;99.90;;;;;;4910538;29;20246;-68
2023/01/27 10:17:51;;;;;;;6.90;5.47;;;3.60;99.90;;;;;;5010527;28;20650;-64
2023/01/27 10:20:24;;;;;;;7.40;4.47;;;3.60;99.90;;;;;;5010669;28;20207;-63
2023/01/27 10:23:02;;;;;;;8.57;5.90;;;3.60;99.90;;;;;;5004693;28;20329;-66
2023/01/27 10:26:03;;;;;;;5.50;5.00;;;3.70;99.90;;;;;;4996670;28;20565;-64
2023/01/27 10:28:31;;;;;;;6.50;5.10;;;3.70;99.90;;;;;;5001333;28;20209;-64
2023/01/27 10:31:16;;;;;;;5.63;5.10;;;3.60;99.90;;;;;;5006057;28;20258;-69
2023/01/27 10:33:53;;;;;;;4.80;4.37;;;3.60;99.90;;;;;;5007919;28;20666;-70
2023/01/27 10:36:38;;;;;;;9.83;4.80;;;3.60;99.90;;;;;;4998128;28;20624;-73
2023/01/27 10:39:19;;;;;;;4.93;4.53;;;3.70;99.90;;;;;;5004489;28;20461;-78
2023/01/27 10:42:09;;;;;;;6.70;4.90;;;3.60;99.90;;;;;;5006335;28;20207;-76
2023/01/27 10:45:05;;;;;;;5.50;4.67;;;3.70;99.90;;;;;;5006960;28;20233;-73
2023/01/27 10:47:57;;;;;;;5.73;5.07;;;3.60;99.90;;;;;;4968358;28;20204;-76
2023/01/27 10:50:40;;;;;;;6.43;4.80;;;3.60;99.90;;;;;;5005883;28;20193;-74
2023/01/27 10:53:18;;;;;;;9.13;5.23;;;3.60;99.90;;;;;;5003830;28;20216;-77
2023/01/27 10:55:59;;;;;;;8.13;5.37;;;3.60;99.90;;;;;;5006415;28;20211;-85
2023/01/27 10:58:50;;;;;;;12.33;5.60;;;3.60;99.90;;;;;;5006770;28;20191;-72
2023/01/27 11:01:18;;;;;;;9.03;5.07;;;3.60;99.90;;;;;;5004277;28;20245;-70
2023/01/27 11:03:58;;;;;;;9.70;4.67;;;3.60;99.90;;;;;;5006098;28;20272;-69
2023/01/27 11:06:38;;;;;;;6.47;5.13;;;3.70;99.90;;;;;;5005307;28;20196;-71
2023/01/27 11:09:15;;;;;;;9.23;5.10;;;3.70;99.90;;;;;;5005237;28;20890;-70
2023/01/27 11:11:45;;;;;;;7.73;5.00;;;3.60;99.90;;;;;;5004268;28;20286;-71
2023/01/27 11:14:21;;;;;;;14.20;6.23;;;3.60;99.90;;;;;;5004065;28;20621;-72
2023/01/27 11:17:17;;;;;;;6.13;4.97;;;3.60;99.90;;;;;;5004190;28;20205;-72
2023/01/27 11:19:59;;;;;;;9.30;5.00;;;3.70;99.90;;;;;;4971323;28;20522;-71
2023/01/27 11:22:36;;;;;;;6.43;4.63;;;3.70;99.90;;;;;;5005984;28;20264;-73
2023/01/27 11:25:16;;;;;;;10.17;4.97;;;3.80;99.90;;;;;;5007635;28;20284;-73
2023/01/27 11:28:00;;;;;;;8.67;5.63;;;3.90;99.90;;;;;;5004738;28;20202;-72
2023/01/27 11:30:47;;;;;;;18.00;10.67;;;3.90;99.90;;;;;;5008015;28;20199;-72
2023/01/27 11:33:32;;;;;;;4.63;4.30;;;3.80;99.90;;;;;;5004668;28;20199;-72
2023/01/27 11:35:58;;;;;;;7.57;4.27;;;3.90;99.90;;;;;;5004671;28;20330;-71
2023/01/27 11:38:23;;;;;;;5.37;4.00;;;3.90;99.90;;;;;;5004874;28;20212;-71
2023/01/27 11:40:51;;;;;;;6.47;4.47;;;3.90;99.90;;;;;;4998772;28;20223;-75
2023/01/27 11:43:22;;;;;;;7.87;4.73;;;3.80;99.90;;;;;;5007116;28;20307;-75
2023/01/27 11:45:50;;;;;;;6.97;4.90;;;3.80;99.90;;;;;;5008500;28;20204;-72
2023/01/27 11:48:17;;;;;;;5.90;4.53;;;3.90;99.90;;;;;;5015397;28;20199;-73
2023/01/27 11:50:44;;;;;;;6.57;5.70;;;3.80;99.90;;;;;;5003756;28;20299;-73
2023/01/27 11:53:19;;;;;;;6.37;4.83;;;3.80;99.90;;;;;;5013135;28;20559;-73
2023/01/27 11:55:59;;;;;;;4.90;4.40;;;3.80;99.90;;;;;;5011110;28;20211;-72
2023/01/27 11:58:30;;;;;;;7.80;5.20;;;3.80;99.90;;;;;;5012394;28;20307;-70
2023/01/27 12:01:03;;;;;;;12.07;5.53;;;3.80;99.90;;;;;;5008064;28;20250;-73
2023/01/27 12:03:41;;;;;;;10.90;6.13;;;3.80;99.90;;;;;;5001415;28;20302;-72
2023/01/27 12:06:15;;;;;;;7.33;5.30;;;3.80;99.90;;;;;;5005343;28;20215;-72
2023/01/27 12:08:43;;;;;;;5.53;5.00;;;3.80;99.90;;;;;;5008568;28;20211;-76
2023/01/27 12:11:22;;;;;;;6.53;4.77;;;3.90;99.90;;;;;;5011904;28;20207;-76
2023/01/27 12:13:56;;;;;;;6.53;4.90;;;3.90;99.90;;;;;;5007504;28;20324;-76
2023/01/27 12:16:26;;;;;;;6.13;5.53;;;4.00;99.90;;;;;;5010683;28;20206;-74
2023/01/27 12:19:01;;;;;;;8.07;5.90;;;3.80;99.90;;;;;;5010580;28;20226;-76
2023/01/27 12:21:38;;;;;;;9.37;6.47;;;3.80;99.90;;;;;;5002073;28;20246;-75
2023/01/27 12:24:12;;;;;;;10.37;6.10;;;3.80;99.90;;;;;;4987089;28;20719;-71
2023/01/27 12:26:39;;;;;;;7.60;6.50;;;3.70;99.90;;;;;;4989956;28;20677;-74
2023/01/27 12:29:18;;;;;;;8.20;6.03;;;3.60;99.90;;;;;;4992204;28;20223;-70
2023/01/27 12:31:47;;;;;;;9.93;6.13;;;3.60;99.90;;;;;;4992037;28;20199;-75
2023/01/27 12:34:24;;;;;;;13.90;6.83;;;3.60;99.90;;;;;;4995118;28;20627;-72
2023/01/27 12:36:50;;;;;;;8.50;7.17;;;3.60;99.90;;;;;;4988515;28;20253;-72
2023/01/27 12:39:28;;;;;;;7.73;6.03;;;3.70;99.90;;;;;;4992992;28;20783;-72
2023/01/27 12:41:54;;;;;;;11.60;5.70;;;3.60;99.90;;;;;;4988633;28;20278;-74
2023/01/27 12:44:22;;;;;;;10.90;6.17;;;3.60;99.90;;;;;;4988366;28;20755;-71
2023/01/27 12:47:00;;;;;;;10.37;6.20;;;3.60;99.90;;;;;;4988665;28;20671;-71
2023/01/27 12:49:36;;;;;;;15.70;5.90;;;3.70;99.90;;;;;;4989361;28;20620;-71
2023/01/27 12:52:04;;;;;;;12.97;8.67;;;3.60;99.90;;;;;;4988980;28;20192;-70
2023/01/27 12:54:31;;;;;;;7.17;6.27;;;3.60;99.90;;;;;;4991966;28;20199;-70
2023/01/27 12:57:02;;;;;;;12.23;5.40;;;3.50;99.90;;;;;;4990894;28;20207;-71
2023/01/27 12:59:28;;;;;;;11.07;4.53;;;3.50;99.90;;;;;;4985387;28;20299;-71
2023/01/27 13:02:20;;;;;;;8.73;4.73;;;3.50;99.90;;;;;;4988147;28;20290;-72
2023/01/27 13:05:00;;;;;;;9.90;4.97;;;3.50;99.90;;;;;;4993913;28;20244;-72
2023/01/27 13:07:29;;;;;;;8.30;5.90;;;3.60;99.90;;;;;;4995729;28;20204;-70
2023/01/27 13:10:14;;;;;;;9.70;5.20;;;3.60;99.90;;;;;;4941065;28;20550;-71
2023/01/27 13:13:00;;;;;;;9.80;5.70;;;3.60;99.90;;;;;;4986201;28;20196;-71
2023/01/27 13:15:28;;;;;;;14.40;4.47;;;3.50;99.90;;;;;;4983438;28;20806;-72
2023/01/27 13:17:58;;;;;;;7.07;4.40;;;3.60;99.90;;;;;;4987285;28;20535;-71
2023/01/27 13:20:42;;;;;;;9.33;4.87;;;3.40;99.90;;;;;;4987127;28;20723;-72
2023/01/27 13:23:14;;;;;;;6.27;4.07;;;3.50;99.90;;;;;;4987375;28;20208;-71
2023/01/27 13:26:02;;;;;;;6.20;4.03;;;3.40;99.90;;;;;;4991465;28;20669;-72
2023/01/27 13:28:50;;;;;;;10.83;3.90;;;3.40;99.90;;;;;;4986634;28;20258;-71
2023/01/27 13:31:32;;;;;;;5.93;4.13;;;3.30;99.90;;;;;;4984815;28;20613;-72
2023/01/27 13:34:09;;;;;;;6.27;3.50;;;3.40;99.90;;;;;;4990147;28;20294;-71
2023/01/27 13:36:51;;;;;;;13.13;4.33;;;3.30;99.90;;;;;;4986715;28;20213;-71